createdAt,value
2022-11-04T00:01:09.421Z,17.77
2022-11-04T00:04:32.620Z,15.30
2022-11-04T00:08:11.197Z,15.17
2022-11-04T00:11:46.662Z,13.67
2022-11-04T00:15:22.583Z,12.90
2022-11-04T00:18:43.910Z,19.27
2022-11-04T00:22:23.930Z,17.93
2022-11-04T00:26:02.913Z,19.47
2022-11-04T00:29:24.749Z,16.60
2022-11-04T00:33:03.738Z,15.07
2022-11-04T00:36:26.688Z,16.77
2022-11-04T00:39:49.583Z,16.43
2022-11-04T00:43:10.852Z,16.10
2022-11-04T00:46:34.282Z,16.07
2022-11-04T00:49:55.873Z,14.87
2022-11-04T00:53:17.127Z,18.77
2022-11-04T00:56:40.369Z,16.23
2022-11-04T01:00:01.737Z,16.60
2022-11-04T01:03:22.971Z,18.13
2022-11-04T01:06:44.185Z,16.63
2022-11-04T01:10:06.242Z,18.13
2022-11-04T01:13:29.134Z,16.30
2022-11-04T01:16:50.831Z,17.93
2022-11-04T01:20:13.906Z,18.90
2022-11-04T01:23:36.345Z,17.73
2022-11-04T01:26:57.931Z,18.57
2022-11-04T01:30:21.213Z,18.27
2022-11-04T01:33:43.077Z,20.10
2022-11-04T01:37:04.645Z,19.57
2022-11-04T01:40:26.229Z,16.23
2022-11-04T01:43:51.510Z,19.53
2022-11-04T01:47:18.488Z,15.73
2022-11-04T01:50:40.589Z,19.63
2022-11-04T01:54:03.309Z,16.80
2022-11-04T01:57:28.775Z,19.63
2022-11-04T02:00:50.764Z,19.53
2022-11-04T02:04:27.574Z,18.53
2022-11-04T02:07:52.876Z,19.10
2022-11-04T02:11:34.365Z,16.97
2022-11-04T02:14:56.927Z,17.20
2022-11-04T02:18:55.571Z,17.83
2022-11-04T02:22:43.583Z,16.53
2022-11-04T02:26:30.671Z,18.30
2022-11-04T02:30:09.262Z,20.77
2022-11-04T02:33:38.389Z,17.13
2022-11-04T02:37:09.845Z,17.80
2022-11-04T02:40:40.436Z,20.03
2022-11-04T02:44:12.416Z,16.43
2022-11-04T02:47:39.290Z,21.17
2022-11-04T02:51:07.616Z,20.87
2022-11-04T02:54:34.289Z,16.73
2022-11-04T02:58:00.214Z,18.57
2022-11-04T03:01:23.810Z,18.20
2022-11-04T03:04:50.971Z,17.77
2022-11-04T03:08:16.659Z,21.70
2022-11-04T03:11:42.416Z,23.80
2022-11-04T03:15:07.310Z,18.07
2022-11-04T03:18:38.708Z,14.97
2022-11-04T03:22:05.335Z,15.97
2022-11-04T03:25:37.478Z,21.47
2022-11-04T03:29:08.696Z,20.13
2022-11-04T03:32:39.269Z,18.67
2022-11-04T03:36:03.051Z,16.20
2022-11-04T03:39:26.178Z,19.67
2022-11-04T03:42:52.672Z,17.50
2022-11-04T03:46:14.676Z,22.87
2022-11-04T03:49:36.734Z,22.70
2022-11-04T03:52:59.088Z,19.67
2022-11-04T03:56:51.134Z,18.33
2022-11-04T04:00:15.693Z,18.20
2022-11-04T04:03:45.269Z,21.93
2022-11-04T04:07:09.538Z,20.33
2022-11-04T04:10:41.770Z,22.03
2022-11-04T04:14:10.142Z,21.47
2022-11-04T04:17:37.910Z,20.17
2022-11-04T04:21:03.052Z,22.47
2022-11-04T04:24:46.781Z,19.27
2022-11-04T04:28:10.247Z,18.77
2022-11-04T04:31:52.355Z,17.80
2022-11-04T04:35:32.790Z,19.60
2022-11-04T04:39:12.040Z,20.67
2022-11-04T04:42:57.688Z,23.17
2022-11-04T04:46:19.943Z,22.47
2022-11-04T04:49:51.864Z,19.80
2022-11-04T04:53:13.720Z,22.73
2022-11-04T04:56:35.179Z,20.03
2022-11-04T04:59:56.487Z,20.73
2022-11-04T05:03:17.791Z,24.03
2022-11-04T05:06:40.573Z,21.67
2022-11-04T05:10:01.760Z,19.67
2022-11-04T05:13:30.178Z,20.40
2022-11-04T05:16:51.935Z,22.57
2022-11-04T05:20:13.954Z,18.67
2022-11-04T05:23:36.824Z,20.17
2022-11-04T05:26:58.196Z,20.70
2022-11-04T05:30:20.173Z,23.47
2022-11-04T05:33:41.939Z,21.93
2022-11-04T05:37:03.267Z,23.97
2022-11-04T05:40:26.620Z,20.20
2022-11-04T05:43:48.054Z,19.37
2022-11-04T05:47:09.170Z,21.77
2022-11-04T05:50:31.696Z,19.93
2022-11-04T05:53:53.202Z,24.27
2022-11-04T05:57:16.352Z,21.73
2022-11-04T06:00:37.907Z,19.93
2022-11-04T06:04:01.184Z,21.03
2022-11-04T06:07:22.901Z,22.03
2022-11-04T06:10:45.201Z,22.47
2022-11-04T06:14:08.117Z,22.13
2022-11-04T06:17:29.521Z,23.23
2022-11-04T06:20:51.394Z,21.47
2022-11-04T06:24:12.651Z,35.43
2022-11-04T06:27:34.001Z,24.17
2022-11-04T06:31:05.133Z,25.73
2022-11-04T06:34:28.206Z,24.43
2022-11-04T06:37:51.835Z,24.50
2022-11-04T06:41:17.575Z,23.40
2022-11-04T06:46:05.524Z,19.97
2022-11-04T06:50:09.169Z,24.13
2022-11-04T06:53:45.934Z,20.83
2022-11-04T06:57:07.521Z,20.67
2022-11-04T07:01:07.195Z,24.53
2022-11-04T07:04:38.958Z,21.43
2022-11-04T07:08:23.262Z,20.37
2022-11-04T07:17:15.808Z,30.70
2022-11-04T07:20:59.035Z,22.33
2022-11-04T07:24:34.850Z,24.90
2022-11-04T07:28:32.836Z,24.93
2022-11-04T07:42:59.410Z,26.90
2022-11-04T07:47:32.105Z,24.43
2022-11-04T07:51:21.279Z,28.30
2022-11-04T07:55:30.254Z,26.47
2022-11-04T07:59:07.948Z,24.43
2022-11-04T08:02:54.107Z,28.60
2022-11-04T08:11:23.430Z,23.50
2022-11-04T08:15:30.007Z,26.33
2022-11-04T08:19:03.634Z,28.50
2022-11-04T08:27:55.582Z,28.43
2022-11-04T08:42:55.434Z,30.80
2022-11-04T08:51:33.909Z,24.07
2022-11-04T09:00:55.953Z,25.50
2022-11-04T09:04:17.530Z,31.30
2022-11-04T09:08:38.179Z,27.60
2022-11-04T09:16:59.414Z,26.13
2022-11-04T09:20:21.817Z,26.53
2022-11-04T09:25:08.027Z,25.20
2022-11-04T09:49:21.807Z,22.15
2022-11-04T09:58:11.203Z,24.60
2022-11-04T10:08:01.028Z,21.55
2022-11-04T10:16:51.909Z,19.38
2022-11-04T10:26:28.090Z,18.70
2022-11-04T10:30:12.184Z,21.80
2022-11-04T10:34:30.463Z,16.35
2022-11-04T10:46:50.968Z,18.90
2022-11-04T11:48:21.329Z,21.58
2022-11-04T13:45:15.787Z,16.45
2022-11-04T13:59:24.682Z,15.60
2022-11-04T14:08:41.700Z,19.38
2022-11-04T14:13:48.373Z,28.70
2022-11-04T14:23:22.887Z,15.75
2022-11-04T14:27:25.759Z,14.18
2022-11-04T14:36:29.852Z,15.50
2022-11-04T14:40:54.442Z,14.27
2022-11-04T14:49:08.513Z,16.85
2022-11-04T15:07:46.128Z,17.98
2022-11-04T15:27:05.699Z,17.45
2022-11-04T15:40:35.534Z,18.20
2022-11-04T15:45:17.303Z,14.13
2022-11-04T16:05:03.486Z,16.08
2022-11-04T16:09:17.080Z,19.85
2022-11-04T16:12:53.362Z,16.75
2022-11-04T17:57:05.492Z,19.85
2022-11-04T18:01:50.037Z,17.70
2022-11-04T18:14:42.454Z,18.27
2022-11-04T18:56:04.801Z,17.80
2022-11-04T18:59:52.517Z,18.08
2022-11-04T19:04:10.606Z,19.40
2022-11-04T19:13:14.483Z,19.83
2022-11-04T19:17:04.148Z,17.17
2022-11-04T19:25:36.519Z,21.38
2022-11-04T19:30:36.902Z,21.00
2022-11-04T19:34:08.110Z,23.45
2022-11-04T19:46:33.958Z,22.05
2022-11-04T20:13:12.150Z,25.85
2022-11-04T20:31:26.814Z,24.63
2022-11-04T20:35:45.210Z,24.63
2022-11-04T20:52:11.099Z,22.25
2022-11-04T21:00:58.894Z,21.20
2022-11-04T21:06:10.608Z,20.48
2022-11-04T21:50:17.665Z,19.58
2022-11-04T21:53:58.240Z,17.30
2022-11-04T22:07:47.743Z,18.25
2022-11-04T22:12:17.124Z,19.48
2022-11-04T22:16:10.601Z,18.30
2022-11-04T22:19:58.241Z,19.30
2022-11-04T22:24:08.592Z,19.35
2022-11-04T22:27:32.686Z,20.55
2022-11-04T22:30:54.516Z,19.35
2022-11-04T22:34:15.993Z,19.30
2022-11-04T22:37:37.249Z,16.88
2022-11-04T22:41:01.147Z,15.77
2022-11-04T22:44:22.646Z,17.75
2022-11-04T22:47:44.364Z,16.27
2022-11-04T22:51:06.825Z,16.23
2022-11-04T22:54:28.517Z,20.80
2022-11-04T22:57:51.610Z,19.88
2022-11-04T23:01:15.376Z,20.02
2022-11-04T23:04:37.789Z,17.25
2022-11-04T23:08:00.275Z,18.77
2022-11-04T23:11:42.452Z,19.38
2022-11-04T23:15:23.118Z,22.23
2022-11-04T23:18:44.768Z,23.38
2022-11-04T23:22:24.355Z,32.78
2022-11-04T23:25:45.968Z,21.67
2022-11-04T23:29:25.135Z,20.27
2022-11-04T23:32:48.135Z,16.48
2022-11-04T23:36:27.435Z,14.80
2022-11-04T23:39:50.924Z,16.93
2022-11-04T23:43:13.306Z,16.38
2022-11-04T23:46:52.389Z,17.77
2022-11-04T23:50:33.115Z,21.13
2022-11-04T23:54:11.955Z,16.55
2022-11-04T23:57:50.958Z,15.15
